LFRK/CFR METAR and TAF weather

Enter ICAO airport designator
Station Type Date Time Source
LFRK METAR 2018/12/17 03:30 UTC NOAA

LFRK 170330Z AUTO 24010KT 9999 FEW018 SCT042 BKN048 07/06 Q1016


Station Type Date Time Source
LFRK Decoded METAR 2018/12/17 03:30 UTC NOAA

Caen, France (LFRK) 49-11N 000-27W 67M
Dec 16, 2018 - 10:30 PM EST / 2018.12.17 0330 UTC
Wind: from the WSW (240 degrees) at 12 MPH (10 KT):0
Visibility: greater than 7 mile(s):0
Sky conditions: mostly cloudy
Temperature: 44 F (7 C)
Dew Point: 42 F (6 C)
Relative Humidity: 93%
Pressure (altimeter): 30.00 in. Hg (1016 hPa)
ob: LFRK 170330Z AUTO 24010KT 9999 FEW018 SCT042 BKN048 07/06 Q1016
cycle: 3

Station Type Date Time Source
LFRK TAF UTC NOAA

Error!


Example: see airport list